createdAt,value
2019-01-14T00:04:55.601Z,59.8
2019-01-14T00:09:49.413Z,60
2019-01-14T00:14:45.828Z,59.8
2019-01-14T00:19:42.557Z,59.7
2019-01-14T00:24:39.363Z,59.2
2019-01-14T00:29:36.203Z,58.9
2019-01-14T00:34:33.339Z,59.3
2019-01-14T00:39:30.224Z,59.4
2019-01-14T00:44:27.013Z,59.4
2019-01-14T00:49:23.880Z,59.2
2019-01-14T00:54:20.701Z,59.3
2019-01-14T00:59:17.515Z,58.8
2019-01-14T01:04:14.156Z,58.4
2019-01-14T01:09:10.775Z,58
2019-01-14T01:14:07.644Z,58.6
2019-01-14T01:19:04.805Z,58.2
2019-01-14T01:24:01.400Z,58.3
2019-01-14T01:28:58.452Z,57.7
2019-01-14T01:33:55.372Z,57.7
2019-01-14T01:38:52.463Z,57.6
2019-01-14T01:43:49.221Z,57.7
2019-01-14T01:48:46.039Z,58.1
2019-01-14T01:53:42.524Z,58.3
2019-01-14T01:58:39.444Z,57.3
2019-01-14T02:03:36.370Z,57.6
2019-01-14T02:08:33.361Z,58
2019-01-14T02:13:30.091Z,58.4
2019-01-14T02:18:27.166Z,58.8
2019-01-14T02:23:24.015Z,59.4
2019-01-14T02:28:20.833Z,59.1
2019-01-14T02:33:17.624Z,59.1
2019-01-14T02:38:14.610Z,58.8
2019-01-14T02:43:11.294Z,58.8
2019-01-14T02:48:08.185Z,58.5
2019-01-14T02:53:04.760Z,58.8
2019-01-14T02:58:01.643Z,58.8
2019-01-14T03:02:58.356Z,58.6
2019-01-14T03:07:55.331Z,58.9
2019-01-14T03:12:52.116Z,59.1
2019-01-14T03:17:49.161Z,58.9
2019-01-14T03:22:45.669Z,59.7
2019-01-14T03:27:42.557Z,59.4
2019-01-14T03:32:39.420Z,59.2
2019-01-14T03:37:36.200Z,59.3
2019-01-14T03:42:32.982Z,59.3
2019-01-14T03:47:29.990Z,59.1
2019-01-14T03:52:26.804Z,58.6
2019-01-14T03:57:23.675Z,59.7
2019-01-14T04:02:20.532Z,58.9
2019-01-14T04:07:17.663Z,58.9
2019-01-14T04:12:14.584Z,57.8
2019-01-14T04:17:11.535Z,58.2
2019-01-14T04:22:08.316Z,57.9
2019-01-14T04:27:05.240Z,58.2
2019-01-14T04:32:01.895Z,58
2019-01-14T04:36:58.769Z,58.2
2019-01-14T04:41:55.614Z,58.7
2019-01-14T04:46:52.571Z,58.8
2019-01-14T04:51:49.210Z,58.7
2019-01-14T04:56:46.179Z,58.5
2019-01-14T05:01:42.681Z,59
2019-01-14T05:06:39.635Z,58.8
2019-01-14T05:11:36.360Z,58.9
2019-01-14T05:16:33.291Z,58.8
2019-01-14T05:21:29.987Z,59.1
2019-01-14T05:26:26.783Z,59.2
2019-01-14T05:31:23.626Z,59.3
2019-01-14T05:36:20.532Z,59.1
2019-01-14T05:41:16.733Z,58.8
2019-01-14T05:46:13.715Z,58.6
2019-01-14T05:51:10.670Z,58.4
2019-01-14T05:56:07.478Z,58.1
2019-01-14T06:01:03.981Z,57.6
2019-01-14T06:06:00.805Z,59.2
2019-01-14T06:10:58.220Z,59.5
2019-01-14T06:15:55.210Z,58.5
2019-01-14T06:20:52.123Z,58.1
2019-01-14T06:25:49.281Z,58.5
2019-01-14T06:30:46.283Z,57.8
2019-01-14T06:35:43.193Z,58.2
2019-01-14T06:40:40.139Z,58.4
2019-01-14T06:45:37.486Z,58.5
2019-01-14T06:50:35.816Z,57.7
2019-01-14T06:55:33.096Z,57.4
2019-01-14T07:00:29.904Z,57.2
2019-01-14T07:05:26.877Z,56.9
2019-01-14T07:10:23.832Z,57.2
2019-01-14T07:15:18.787Z,57
2019-01-14T07:20:15.149Z,56.9
2019-01-14T07:25:12.184Z,56.6
2019-01-14T07:30:08.843Z,57.2
2019-01-14T07:35:05.873Z,57.7
2019-01-14T07:40:02.448Z,57.5
2019-01-14T07:44:59.607Z,57.3
2019-01-14T07:49:56.053Z,56.2
2019-01-14T07:54:52.863Z,56.1
2019-01-14T07:59:49.569Z,56.4
2019-01-14T08:04:46.368Z,56.1
2019-01-14T08:09:42.722Z,56.5
2019-01-14T08:14:42.714Z,56.6
2019-01-14T08:19:37.413Z,55.7
2019-01-14T08:24:34.401Z,56.5
2019-01-14T08:29:31.039Z,56
2019-01-14T08:34:28.057Z,56
2019-01-14T08:39:24.881Z,55.7
2019-01-14T08:44:22.023Z,55.3
2019-01-14T08:49:18.830Z,55.3
2019-01-14T08:54:15.973Z,55.2
2019-01-14T08:59:12.774Z,55.8
2019-01-14T09:04:09.875Z,56.1
2019-01-14T09:09:05.281Z,56.3
2019-01-14T09:14:01.982Z,55.8
2019-01-14T09:18:58.753Z,55.5
2019-01-14T09:23:55.824Z,55.9
2019-01-14T09:28:52.546Z,55.7
2019-01-14T09:33:49.503Z,56
2019-01-14T09:38:46.465Z,55.6
2019-01-14T09:43:43.511Z,55.7
2019-01-14T09:48:40.797Z,55.8
2019-01-14T09:53:37.630Z,56
2019-01-14T09:58:34.576Z,56.2
2019-01-14T10:03:31.662Z,56.2
2019-01-14T10:08:28.537Z,56.1
2019-01-14T10:13:25.735Z,56.2
2019-01-14T10:18:22.870Z,56.6
2019-01-14T10:23:19.904Z,57.1
2019-01-14T10:28:16.871Z,56.5
2019-01-14T10:33:14.317Z,56.7
2019-01-14T10:38:10.965Z,55.8
2019-01-14T10:43:07.761Z,56.5
2019-01-14T10:48:04.707Z,56.3
2019-01-14T10:53:01.691Z,56.6
2019-01-14T10:57:58.372Z,56.7
2019-01-14T11:02:55.383Z,56.5
2019-01-14T11:07:52.218Z,57.5
2019-01-14T11:12:49.304Z,57
2019-01-14T11:17:46.661Z,56.3
2019-01-14T11:22:43.147Z,56.5
2019-01-14T11:27:40.013Z,56
2019-01-14T11:32:37.069Z,56.3
2019-01-14T11:37:33.674Z,55.7
2019-01-14T11:42:30.756Z,55.7
2019-01-14T11:47:27.863Z,55
2019-01-14T11:52:25.027Z,55.3
2019-01-14T11:57:22.146Z,55.1
2019-01-14T12:02:19.241Z,55.2
2019-01-14T12:07:15.657Z,55.2
2019-01-14T12:12:12.287Z,55.8
2019-01-14T12:17:08.964Z,56.1
2019-01-14T12:22:05.734Z,56
2019-01-14T12:27:03.081Z,55.8
2019-01-14T12:31:59.754Z,56.1
2019-01-14T12:36:56.638Z,56.8
2019-01-14T12:41:53.694Z,57
2019-01-14T12:46:50.758Z,58.4
2019-01-14T12:51:47.752Z,58.9
2019-01-14T12:56:44.588Z,59.3
2019-01-14T13:01:41.788Z,59.2
2019-01-14T13:06:38.887Z,59.9
2019-01-14T13:11:35.712Z,60.9
2019-01-14T13:16:32.576Z,61.5
2019-01-14T13:21:29.597Z,61.3
2019-01-14T13:26:26.274Z,61.7
2019-01-14T13:31:23.196Z,62
2019-01-14T13:36:20.053Z,62.2
2019-01-14T13:41:16.881Z,62.5
2019-01-14T13:46:13.659Z,62.4
2019-01-14T13:51:11.086Z,62.4
2019-01-14T13:56:08.017Z,61.8
2019-01-14T14:01:05.025Z,61.7
2019-01-14T14:06:01.924Z,61.7
2019-01-14T14:10:58.755Z,61.9
2019-01-14T14:15:55.592Z,61.8
2019-01-14T14:20:52.671Z,61.6
2019-01-14T14:25:49.655Z,61.5
2019-01-14T14:30:46.785Z,61.3
2019-01-14T14:35:43.847Z,62
2019-01-14T14:40:40.914Z,61.9
2019-01-14T14:45:37.370Z,62
2019-01-14T14:50:34.308Z,61.4
2019-01-14T14:55:30.965Z,61.8
2019-01-14T15:00:28.019Z,62
2019-01-14T15:05:24.835Z,62.2
2019-01-14T15:10:21.032Z,62.1
2019-01-14T15:15:17.846Z,62.3
2019-01-14T15:20:14.976Z,61.9
2019-01-14T15:25:11.924Z,61.7
2019-01-14T15:30:08.904Z,61.6
2019-01-14T15:35:06.510Z,61.7
2019-01-14T15:40:05.369Z,61.6
2019-01-14T15:45:00.242Z,61.5
2019-01-14T15:49:57.423Z,61.6
2019-01-14T15:54:54.417Z,61.7
2019-01-14T15:59:51.494Z,61.7
2019-01-14T16:04:48.181Z,61.7
2019-01-14T16:09:45.073Z,61.7
2019-01-14T16:14:42.004Z,62.6
2019-01-14T16:19:39.578Z,62.9
2019-01-14T16:24:35.835Z,63
2019-01-14T16:29:33.070Z,63
2019-01-14T16:34:30.025Z,62.6
2019-01-14T16:39:26.823Z,63.1
2019-01-14T16:44:23.637Z,63
2019-01-14T16:49:20.247Z,62.7
2019-01-14T16:54:17.305Z,63.2
2019-01-14T16:59:14.335Z,63.7
2019-01-14T17:04:11.082Z,63.5
2019-01-14T17:09:07.962Z,63.6
2019-01-14T17:14:04.927Z,63.4
2019-01-14T17:19:02.153Z,63.3
2019-01-14T17:23:59.291Z,63.4
2019-01-14T17:28:55.990Z,63.4
2019-01-14T17:33:52.455Z,63.6
2019-01-14T17:38:49.233Z,63.5
2019-01-14T17:43:45.997Z,64
2019-01-14T17:48:42.989Z,63.8
2019-01-14T17:53:39.920Z,64
2019-01-14T17:58:36.931Z,63.7
2019-01-14T18:08:30.983Z,63.9
2019-01-14T18:13:27.770Z,64
2019-01-14T18:18:24.745Z,63.9
2019-01-14T18:23:21.644Z,64.5
2019-01-14T18:28:18.683Z,64.5
2019-01-14T18:33:15.242Z,64.7
2019-01-14T18:38:12.151Z,64.2
2019-01-14T18:43:09.070Z,64.3
2019-01-14T18:48:06.033Z,64.7
2019-01-14T18:53:02.840Z,64.5
2019-01-14T18:57:59.923Z,64.7
2019-01-14T19:02:56.763Z,64.3
2019-01-14T19:07:53.818Z,64.6
2019-01-14T19:12:50.811Z,64.6
2019-01-14T19:17:47.772Z,64.6
2019-01-14T19:22:44.164Z,64.4
2019-01-14T19:27:41.223Z,63.6
2019-01-14T19:32:38.925Z,63.2
2019-01-14T19:37:35.717Z,62.2
2019-01-14T19:42:32.777Z,62
2019-01-14T19:47:29.796Z,61.3
2019-01-14T19:52:26.288Z,61.2
2019-01-14T19:57:23.307Z,61.2
2019-01-14T20:02:20.151Z,60.6
2019-01-14T20:07:16.872Z,60.1
2019-01-14T20:12:13.797Z,59.9
2019-01-14T20:17:10.879Z,60
2019-01-14T20:22:07.743Z,59.5
2019-01-14T20:27:04.757Z,59.3
2019-01-14T20:32:01.895Z,59.2
2019-01-14T20:36:58.971Z,59.2
2019-01-14T20:41:55.700Z,59.1
2019-01-14T20:46:52.877Z,59.1
2019-01-14T20:51:49.962Z,58.9
2019-01-14T20:56:46.838Z,59
2019-01-14T21:01:43.445Z,58.6
2019-01-14T21:06:40.538Z,58.8
2019-01-14T21:11:36.746Z,59.1
2019-01-14T21:16:33.729Z,59.3
2019-01-14T21:21:30.691Z,59
2019-01-14T21:26:26.971Z,58.6
2019-01-14T21:31:23.802Z,57.7
2019-01-14T21:36:20.678Z,55.9
2019-01-14T21:41:17.399Z,55.3
2019-01-14T21:46:14.217Z,53.2
2019-01-14T21:51:10.245Z,51.8
2019-01-14T21:56:07.164Z,50.7
2019-01-14T22:01:04.119Z,50.5
2019-01-14T22:06:00.912Z,50.8
2019-01-14T22:10:57.951Z,50.7
2019-01-14T22:15:55.025Z,50.1
2019-01-14T22:20:51.934Z,49.8
2019-01-14T22:25:48.922Z,49.8
2019-01-14T22:30:45.425Z,49.9
2019-01-14T22:35:42.508Z,49.9
2019-01-14T22:40:39.313Z,49.3
2019-01-14T22:45:36.443Z,49.4
2019-01-14T22:50:33.193Z,48.6
2019-01-14T22:55:30.230Z,48.9
2019-01-14T23:00:26.884Z,48.9
2019-01-14T23:05:23.345Z,48.7
2019-01-14T23:10:20.204Z,49.2
2019-01-14T23:15:17.117Z,48.9
2019-01-14T23:20:13.943Z,48.7
2019-01-14T23:25:11.074Z,48
2019-01-14T23:30:07.610Z,48
2019-01-14T23:35:04.723Z,47.8
2019-01-14T23:40:01.742Z,48.1
2019-01-14T23:44:58.274Z,48.6
2019-01-14T23:49:54.725Z,48.9
2019-01-14T23:54:51.732Z,48.9
2019-01-14T23:59:48.771Z,49.1
